Accueil
METAR-TAF:

METAR-TAF

Aéroports :

Deer Lake, Terre-Neuve-et-Labrador, Canada

Aéroport régional de Deer Lake

latitude: 49-13N, longitude: 057-24W, altitude: 17 m

Observation

Le bulletin a été fait il y a 18 minutes, à 02:15 UTC
Vent 8 kt de ouest/sud-ouest
Température -10°C
Humidité 67%
Pression 1026 hPa
Visibilité: 24.1 km
Nuages fragmentés à une hauteur de 4400 ft

METAR: CYDF 230215Z 24008KT 15SM BKN044 M10/M15 A3030 RMK SC6 SLP263

Heure: 23:03 (02:33 UTC)

Prévision

Le bulletin a été fait il y a 55 minutes, à 01:38 UTC
Prévision valable du 23 à 02 UTC au 23 à 14 UTC
Vent 10 kt de ouest/sud-ouest avec des rafales jusqu'à 20 kt
Visibilité: 10 km
Nuages fragmentés à une hauteur de 3000 ft
Temporairement
du 23 à 02 UTC au 23 à 14 UTC
Visibilité: 10 km
Nuages fragmentés à une hauteur de 2000 ft
faibles averses de neige

TAF: CYDF 230138Z 2302/2314 25010G20KT P6SM BKN030 TEMPO 2302/2314 P6SM -SHSN BKN020 RMK NXT FCST BY 230800Z

Observations et prévisions météorologiques de plus de 4000 aéroports (messages METAR et TAF).

Les stations disponibles sont représentées par des disques jaunes et rouges sur la carte.

Passer la souris dessus pour voir le nom de la station.

Cliquer dessus pour voir les observations et prévisions météorologiques.

Pour changer de carte: cliquez sur les boutons verts avec une croix noire pour zoomer, sur le bouton vert avec un tiret pour effectuer un zoom arrière, ou sur les flèches vertes pour les cartes adjacentes.


METAR-TAF: